Time;durP1;ratioP1;P1;durP2;ratioP2;P2;SDS_P1;SDS_P2;PMS_P1;PMS_P2;Temp;Humidity;BMP_temperature;BMP_pressure;BME280_temperature;BME280_humidity;BME280_pressure;Samples;Min_cycle;Max_cycle;Signal;HPM_P1;HPM_P2
2022/12/14 00:01:20;;;;;;;11.10;2.50;;;14.70;99.90;;;;;;5015519;28;22053;-77
2022/12/14 00:03:47;;;;;;;12.93;2.60;;;14.70;99.90;;;;;;5025107;28;20223;-77
2022/12/14 00:06:23;;;;;;;11.57;2.10;;;14.70;99.90;;;;;;5040377;28;20566;-77
2022/12/14 00:08:52;;;;;;;10.07;2.50;;;14.60;99.90;;;;;;5029848;28;20696;-77
2022/12/14 00:11:21;;;;;;;11.40;3.00;;;14.60;99.90;;;;;;5022604;28;20188;-77
2022/12/14 00:13:55;;;;;;;12.63;3.20;;;14.60;99.90;;;;;;5015678;28;20185;-77
2022/12/14 00:16:24;;;;;;;12.43;2.80;;;14.50;99.90;;;;;;5016094;28;20557;-78
2022/12/14 00:18:53;;;;;;;14.57;3.20;;;14.50;99.90;;;;;;5008933;28;20688;-78
2022/12/14 00:21:21;;;;;;;14.60;3.43;;;14.40;99.90;;;;;;5026275;28;20199;-78
2022/12/14 00:23:50;;;;;;;11.20;3.43;;;14.40;99.90;;;;;;5019129;28;20196;-78
2022/12/14 00:26:19;;;;;;;11.37;2.90;;;14.40;99.90;;;;;;5048626;28;20259;-78
2022/12/14 00:28:48;;;;;;;11.13;3.13;;;14.30;99.90;;;;;;5024558;28;20179;-78
2022/12/14 00:31:15;;;;;;;11.17;2.70;;;14.30;99.90;;;;;;5014356;28;20184;-78
2022/12/14 00:33:42;;;;;;;13.13;2.70;;;14.30;99.90;;;;;;5014170;28;20629;-78
2022/12/14 00:36:10;;;;;;;12.80;2.70;;;14.30;99.90;;;;;;5038301;28;20638;-78
2022/12/14 00:38:38;;;;;;;7.00;2.23;;;14.20;99.90;;;;;;5027315;28;20184;-78
2022/12/14 00:41:05;;;;;;;11.53;2.80;;;14.20;99.90;;;;;;5045270;28;20531;-78
2022/12/14 00:43:32;;;;;;;12.87;3.37;;;14.20;99.90;;;;;;5042581;28;20261;-78
2022/12/14 00:45:58;;;;;;;19.00;3.70;;;14.20;99.90;;;;;;5029285;28;20236;-78
2022/12/14 00:48:25;;;;;;;18.93;2.83;;;14.20;99.90;;;;;;5031333;28;20210;-78
2022/12/14 00:50:54;;;;;;;21.63;3.17;;;14.20;99.90;;;;;;5014307;28;20784;-78
2022/12/14 00:53:23;;;;;;;14.50;3.03;;;14.20;99.90;;;;;;5030449;28;20184;-78
2022/12/14 00:55:50;;;;;;;15.30;3.10;;;14.20;99.90;;;;;;5049987;28;20187;-78
2022/12/14 00:58:20;;;;;;;14.37;3.07;;;14.20;99.90;;;;;;5025906;28;20597;-78
2022/12/14 01:00:56;;;;;;;11.77;2.93;;;14.20;99.90;;;;;;5032993;28;20688;-79
2022/12/14 01:03:24;;;;;;;15.83;3.00;;;14.10;99.90;;;;;;5031793;28;20636;-79
2022/12/14 01:05:50;;;;;;;17.43;3.57;;;14.00;99.90;;;;;;5031870;28;20640;-79
2022/12/14 01:08:16;;;;;;;18.83;3.57;;;14.00;99.90;;;;;;5006606;28;20192;-79
2022/12/14 01:10:44;;;;;;;11.00;2.47;;;14.00;99.90;;;;;;5011484;28;20191;-79
2022/12/14 01:13:10;;;;;;;11.60;2.63;;;13.90;99.90;;;;;;5045588;28;20191;-79
2022/12/14 01:15:37;;;;;;;15.20;3.30;;;13.90;99.90;;;;;;5031210;28;20183;-79
2022/12/14 01:18:04;;;;;;;11.40;2.50;;;13.90;99.90;;;;;;5026806;28;20250;-79
2022/12/14 01:20:31;;;;;;;10.57;2.70;;;13.90;99.90;;;;;;5027222;28;20200;-79
2022/12/14 01:22:57;;;;;;;16.90;2.70;;;13.90;99.90;;;;;;5008379;28;20219;-79
2022/12/14 01:25:24;;;;;;;8.77;2.50;;;13.90;99.90;;;;;;5026322;28;20983;-80
2022/12/14 01:27:50;;;;;;;9.00;2.63;;;13.90;99.90;;;;;;5028342;28;20203;-79
2022/12/14 01:30:18;;;;;;;13.53;2.83;;;13.90;99.90;;;;;;5029757;28;20180;-79
2022/12/14 01:32:45;;;;;;;15.50;3.07;;;13.90;99.90;;;;;;5021096;28;20194;-79
2022/12/14 01:35:12;;;;;;;14.20;2.90;;;13.90;99.90;;;;;;5031066;28;20184;-79
2022/12/14 01:37:38;;;;;;;13.80;2.80;;;13.90;99.90;;;;;;5045459;28;20180;-79
2022/12/14 01:40:05;;;;;;;9.10;2.60;;;13.90;99.90;;;;;;5031737;28;20196;-79
2022/12/14 01:42:35;;;;;;;13.00;2.47;;;13.90;99.90;;;;;;5014945;28;20193;-79
2022/12/14 01:45:02;;;;;;;11.40;2.60;;;13.80;99.90;;;;;;5030242;28;20212;-79
2022/12/14 01:47:47;;;;;;;13.20;2.87;;;13.70;99.90;;;;;;5028725;28;20689;-79
2022/12/14 01:50:28;;;;;;;10.97;2.47;;;13.70;99.90;;;;;;5011915;28;20184;-79
2022/12/14 01:53:08;;;;;;;9.43;2.13;;;13.70;99.90;;;;;;5017895;28;20208;-79
2022/12/14 01:55:48;;;;;;;12.47;2.80;;;13.70;99.90;;;;;;5059693;28;20237;-79
2022/12/14 01:58:22;;;;;;;10.80;2.43;;;13.60;99.90;;;;;;5009679;28;20257;-79
2022/12/14 02:00:53;;;;;;;11.83;2.63;;;13.60;99.90;;;;;;5030785;28;20200;-79
2022/12/14 02:03:29;;;;;;;12.23;2.70;;;13.60;99.90;;;;;;5029739;28;20196;-79
2022/12/14 02:06:22;;;;;;;9.93;2.87;;;13.60;99.90;;;;;;5030386;28;20215;-79
2022/12/14 02:08:52;;;;;;;13.13;2.80;;;13.60;99.90;;;;;;5028560;28;20196;-79
2022/12/14 02:11:39;;;;;;;12.60;2.47;;;13.60;99.90;;;;;;5030257;28;20191;-79
2022/12/14 02:14:06;;;;;;;13.37;2.80;;;13.60;99.90;;;;;;5043294;28;20192;-79
2022/12/14 02:16:33;;;;;;;11.20;2.80;;;13.60;99.90;;;;;;5028587;28;20665;-79
2022/12/14 02:18:59;;;;;;;9.83;2.20;;;13.60;99.90;;;;;;5028637;28;20266;-79
2022/12/14 02:22:05;;;;;;;10.20;2.40;;;13.60;99.90;;;;;;5030450;28;20184;-79
2022/12/14 02:25:11;;;;;;;9.60;2.20;;;13.60;99.90;;;;;;4997359;28;20200;-79
2022/12/14 02:28:06;;;;;;;8.03;1.90;;;13.50;99.90;;;;;;5028784;28;20681;-79
2022/12/14 02:30:41;;;;;;;13.47;2.67;;;13.40;99.90;;;;;;5027121;28;20195;-79
2022/12/14 02:33:33;;;;;;;10.37;2.20;;;13.50;99.90;;;;;;5023444;28;20299;-79
2022/12/14 02:36:26;;;;;;;10.13;2.20;;;13.50;99.90;;;;;;5020092;28;20278;-79
2022/12/14 02:39:19;;;;;;;10.77;2.43;;;13.50;99.90;;;;;;5023075;28;20646;-79
2022/12/14 02:42:14;;;;;;;11.53;2.10;;;13.50;99.90;;;;;;4994728;28;20189;-78
2022/12/14 02:45:11;;;;;;;7.10;2.20;;;13.50;99.90;;;;;;5024075;28;20195;-78
2022/12/14 02:48:00;;;;;;;7.17;2.17;;;13.50;99.90;;;;;;5024845;28;20675;-79
2022/12/14 02:51:17;;;;;;;9.43;2.70;;;13.50;99.90;;;;;;5031613;28;20318;-80
2022/12/14 02:54:42;;;;;;;8.47;2.23;;;13.50;99.90;;;;;;5015042;28;20200;-79
2022/12/14 02:57:22;;;;;;;6.30;1.77;;;13.50;99.90;;;;;;4966028;28;20239;-79
2022/12/14 02:59:54;;;;;;;6.83;1.70;;;13.40;99.90;;;;;;5022846;28;20575;-79
2022/12/14 03:02:20;;;;;;;9.23;2.00;;;13.40;99.90;;;;;;5026130;28;20200;-79
2022/12/14 03:04:49;;;;;;;9.20;2.20;;;13.40;99.90;;;;;;5008843;28;20657;-79
2022/12/14 03:07:33;;;;;;;7.27;1.70;;;13.40;99.90;;;;;;5027247;28;20259;-80
2022/12/14 03:10:49;;;;;;;5.10;1.60;;;13.40;99.90;;;;;;5026009;28;20549;-79
2022/12/14 03:13:45;;;;;;;4.83;1.13;;;13.40;99.90;;;;;;4989285;28;20219;-78
2022/12/14 03:16:25;;;;;;;6.60;1.40;;;13.40;99.90;;;;;;5018738;28;20554;-79
2022/12/14 03:19:17;;;;;;;6.70;1.60;;;13.40;99.90;;;;;;5026957;28;20195;-79
2022/12/14 03:21:55;;;;;;;5.77;1.70;;;13.40;99.90;;;;;;5036247;28;20193;-79
2022/12/14 03:24:40;;;;;;;8.37;1.87;;;13.40;99.90;;;;;;5027536;28;20238;-79
2022/12/14 03:27:21;;;;;;;8.53;1.60;;;13.30;99.90;;;;;;5023077;28;20276;-79
2022/12/14 03:29:55;;;;;;;6.00;1.87;;;13.40;99.90;;;;;;5011985;28;20542;-79
2022/12/14 03:32:29;;;;;;;8.37;1.77;;;13.40;99.90;;;;;;5033723;28;20562;-79
2022/12/14 03:35:20;;;;;;;7.20;1.83;;;13.30;99.90;;;;;;5021943;28;20183;-79
2022/12/14 03:38:06;;;;;;;11.73;1.57;;;13.30;99.90;;;;;;5015071;28;20192;-79
2022/12/14 03:41:10;;;;;;;8.27;1.40;;;13.30;99.90;;;;;;5030947;28;20195;-79
2022/12/14 03:44:00;;;;;;;6.87;1.70;;;13.30;99.90;;;;;;5028623;28;20188;-79
2022/12/14 03:46:55;;;;;;;9.47;1.87;;;13.30;99.90;;;;;;5036712;28;20219;-79
2022/12/14 03:49:47;;;;;;;6.73;1.83;;;13.30;99.90;;;;;;5002115;28;20196;-79
2022/12/14 03:52:37;;;;;;;5.40;1.60;;;13.30;99.90;;;;;;5037395;28;20185;-79
2022/12/14 03:55:37;;;;;;;6.83;1.80;;;13.30;99.90;;;;;;5023363;28;20738;-79
2022/12/14 03:58:41;;;;;;;7.13;1.73;;;13.30;99.90;;;;;;5023929;28;20203;-79
2022/12/14 04:01:58;;;;;;;7.77;1.90;;;13.30;99.90;;;;;;5025929;28;20188;-79
2022/12/14 04:05:02;;;;;;;7.20;1.80;;;13.30;99.90;;;;;;5026298;28;20188;-79
2022/12/14 04:07:40;;;;;;;9.13;1.43;;;13.30;99.90;;;;;;5018071;28;20192;-79
2022/12/14 04:19:12;;;;;;;17.27;2.00;;;13.40;99.90;;;;;;5021415;28;20192;-78
2022/12/14 04:21:55;;;;;;;9.90;1.80;;;13.40;99.90;;;;;;5036568;28;20213;-79
2022/12/14 04:27:43;;;;;;;16.53;2.10;;;13.30;99.90;;;;;;5035297;28;20889;-79
2022/12/14 04:30:12;;;;;;;10.77;2.00;;;13.30;99.90;;;;;;5014457;28;20237;-79
2022/12/14 04:33:45;;;;;;;8.33;1.73;;;13.30;99.90;;;;;;5032081;28;20279;-79
2022/12/14 04:35:58;;;;;;;11.90;1.97;;;13.30;99.90;;;;;;5016177;28;20200;-79
2022/12/14 04:38:36;;;;;;;11.47;2.00;;;13.30;99.90;;;;;;5042192;28;20184;-79
2022/12/14 04:41:12;;;;;;;15.00;2.20;;;13.40;99.90;;;;;;5020753;28;20191;-79
2022/12/14 04:43:44;;;;;;;16.87;2.20;;;13.40;99.90;;;;;;5042609;28;20671;-79
2022/12/14 04:46:19;;;;;;;14.13;2.23;;;13.40;99.90;;;;;;5012824;28;20227;-79
2022/12/14 04:49:17;;;;;;;13.10;1.93;;;13.40;99.90;;;;;;5033345;28;20673;-79
2022/12/14 04:52:11;;;;;;;20.20;2.30;;;13.40;99.90;;;;;;5059206;28;20187;-79
2022/12/14 04:54:57;;;;;;;12.77;2.10;;;13.40;99.90;;;;;;5032442;28;20298;-79
2022/12/14 04:57:34;;;;;;;11.87;2.30;;;13.40;99.90;;;;;;5026061;28;20275;-79
2022/12/14 05:00:02;;;;;;;17.83;2.40;;;13.40;99.90;;;;;;5025113;28;20179;-79
2022/12/14 05:03:10;;;;;;;16.70;2.73;;;13.40;99.90;;;;;;5027667;28;20181;-79
2022/12/14 05:05:46;;;;;;;9.07;2.00;;;13.40;99.90;;;;;;5026953;28;20212;-79
2022/12/14 05:08:58;;;;;;;11.27;2.40;;;13.40;99.90;;;;;;5023166;28;20254;-79
2022/12/14 05:11:39;;;;;;;7.03;2.17;;;13.40;99.90;;;;;;5033429;28;20183;-79
2022/12/14 05:14:18;;;;;;;7.20;1.93;;;13.40;99.90;;;;;;5010310;28;20562;-79
2022/12/14 05:16:45;;;;;;;7.07;2.20;;;13.40;99.90;;;;;;5026730;28;20215;-79
2022/12/14 05:19:15;;;;;;;8.43;1.87;;;13.40;99.90;;;;;;5035837;28;20216;-79
2022/12/14 05:21:47;;;;;;;8.93;1.80;;;13.30;99.90;;;;;;5027374;28;20607;-79
2022/12/14 05:24:15;;;;;;;5.63;1.67;;;13.30;99.90;;;;;;5044924;28;20197;-79
2022/12/14 05:26:42;;;;;;;4.10;1.10;;;13.30;99.90;;;;;;5038421;28;20226;-79
2022/12/14 05:29:10;;;;;;;7.30;1.60;;;13.30;99.90;;;;;;5031362;28;20196;-79
2022/12/14 05:31:37;;;;;;;5.87;1.40;;;13.20;99.90;;;;;;5032084;28;20269;-79
2022/12/14 05:34:04;;;;;;;5.63;1.10;;;13.20;99.90;;;;;;5006946;28;20224;-79
2022/12/14 05:36:31;;;;;;;10.07;1.43;;;13.20;99.90;;;;;;5018741;28;20193;-79
2022/12/14 05:38:57;;;;;;;7.07;1.10;;;13.20;99.90;;;;;;5012417;28;20216;-79
2022/12/14 05:41:24;;;;;;;5.17;1.40;;;13.20;99.90;;;;;;5024960;28;20297;-78
2022/12/14 05:43:50;;;;;;;6.67;1.60;;;13.20;99.90;;;;;;5023836;28;20675;-78
2022/12/14 05:46:17;;;;;;;5.97;1.20;;;13.20;99.90;;;;;;5031146;28;20227;-79
2022/12/14 05:48:43;;;;;;;5.63;1.30;;;13.20;99.90;;;;;;5014107;28;20191;-78
2022/12/14 05:51:12;;;;;;;8.37;1.30;;;13.10;99.90;;;;;;5020589;28;20228;-79
2022/12/14 05:53:39;;;;;;;7.20;1.13;;;13.20;99.90;;;;;;5022916;28;20216;-79
2022/12/14 05:56:08;;;;;;;5.33;1.43;;;13.20;99.90;;;;;;5020419;28;20272;-79
2022/12/14 05:58:36;;;;;;;3.90;1.30;;;13.20;99.90;;;;;;5027792;28;20557;-79
2022/12/14 06:01:11;;;;;;;2.33;1.00;;;13.20;99.90;;;;;;5024893;28;20204;-79
2022/12/14 06:03:37;;;;;;;2.93;1.10;;;13.10;99.90;;;;;;5038043;28;20490;-79
2022/12/14 06:06:10;;;;;;;10.33;1.53;;;13.10;99.90;;;;;;5018621;28;20329;-79
2022/12/14 06:08:40;;;;;;;4.30;1.70;;;13.10;99.90;;;;;;5025158;28;20518;-79
2022/12/14 06:11:17;;;;;;;7.70;1.40;;;13.10;99.90;;;;;;5021526;28;20224;-79
2022/12/14 06:13:44;;;;;;;3.70;1.07;;;13.10;99.90;;;;;;5026008;28;20660;-78
2022/12/14 06:16:19;;;;;;;5.33;1.37;;;13.10;99.90;;;;;;5010123;28;20201;-78
2022/12/14 06:18:49;;;;;;;3.83;0.93;;;13.10;99.90;;;;;;5024814;28;20203;-78
2022/12/14 06:21:19;;;;;;;4.20;1.20;;;13.10;99.90;;;;;;5029241;28;20199;-78
2022/12/14 06:23:46;;;;;;;5.30;1.50;;;13.10;99.90;;;;;;5029469;28;20230;-78
2022/12/14 06:26:14;;;;;;;4.23;1.30;;;13.10;99.90;;;;;;5017960;28;20320;-78
2022/12/14 06:28:41;;;;;;;3.13;1.00;;;13.20;99.90;;;;;;5018998;28;20711;-78
2022/12/14 06:31:17;;;;;;;3.83;1.07;;;13.20;99.90;;;;;;5021481;28;20950;-78
2022/12/14 06:33:44;;;;;;;6.43;1.00;;;13.20;99.90;;;;;;5024302;28;20266;-78
2022/12/14 06:36:41;;;;;;;4.23;1.00;;;13.20;99.90;;;;;;5011061;28;20215;-78
2022/12/14 06:39:14;;;;;;;3.93;1.20;;;13.20;99.90;;;;;;5021422;28;20275;-78
2022/12/14 06:41:42;;;;;;;3.87;1.27;;;13.30;99.90;;;;;;5045302;28;20188;-78
2022/12/14 06:44:13;;;;;;;5.90;1.10;;;13.30;99.90;;;;;;5030561;28;20552;-78
2022/12/14 06:46:40;;;;;;;2.47;0.87;;;13.30;99.90;;;;;;5026694;28;20255;-78
2022/12/14 06:49:12;;;;;;;5.07;1.10;;;13.30;99.90;;;;;;5025659;28;20188;-78
2022/12/14 06:51:39;;;;;;;5.17;1.20;;;13.40;99.90;;;;;;5027751;28;20200;-77
2022/12/14 06:54:06;;;;;;;3.27;1.00;;;13.40;99.90;;;;;;5006135;28;20185;-77
2022/12/14 06:56:34;;;;;;;2.50;1.10;;;13.40;99.90;;;;;;5037069;28;20553;-77
2022/12/14 06:59:00;;;;;;;4.83;1.20;;;13.50;99.90;;;;;;5026535;28;20192;-78
2022/12/14 07:01:27;;;;;;;2.70;1.20;;;13.50;99.90;;;;;;5029132;28;20565;-78
2022/12/14 07:03:58;;;;;;;6.97;1.00;;;13.50;99.90;;;;;;5028109;28;20718;-78
2022/12/14 07:06:27;;;;;;;4.30;1.13;;;13.50;99.90;;;;;;5011678;28;20220;-78
2022/12/14 07:08:57;;;;;;;6.03;1.00;;;13.50;99.90;;;;;;5042142;28;20241;-78
2022/12/14 07:11:26;;;;;;;3.23;0.90;;;13.50;99.90;;;;;;5007400;28;20538;-78
2022/12/14 07:13:54;;;;;;;3.37;1.23;;;13.50;99.90;;;;;;5031403;28;20221;-78
2022/12/14 07:16:25;;;;;;;5.73;1.00;;;13.50;99.90;;;;;;5027964;28;20229;-78
2022/12/14 07:18:53;;;;;;;2.90;1.10;;;13.50;99.90;;;;;;5025182;28;20279;-78
2022/12/14 07:21:22;;;;;;;5.07;1.03;;;13.50;99.90;;;;;;5008046;28;20192;-78
2022/12/14 07:23:50;;;;;;;3.67;1.20;;;13.50;99.90;;;;;;5027747;28;20190;-78
2022/12/14 07:26:26;;;;;;;3.87;1.20;;;13.40;99.90;;;;;;5009562;28;20208;-78
2022/12/14 07:28:53;;;;;;;4.87;1.47;;;13.40;99.90;;;;;;5050808;28;20187;-77
2022/12/14 07:31:24;;;;;;;4.67;2.30;;;13.40;99.90;;;;;;5018080;28;20204;-78
2022/12/14 07:33:59;;;;;;;4.57;1.70;;;13.50;99.90;;;;;;5022938;28;20216;-78
2022/12/14 07:36:29;;;;;;;4.13;1.50;;;13.50;99.90;;;;;;5020491;28;20211;-78
2022/12/14 07:38:56;;;;;;;4.90;1.20;;;13.40;99.90;;;;;;5035552;28;20260;-77
2022/12/14 07:41:29;;;;;;;6.80;1.00;;;13.40;99.90;;;;;;5014072;28;20578;-77
2022/12/14 07:43:57;;;;;;;1.97;1.00;;;13.40;99.90;;;;;;5017702;28;20234;-78
2022/12/14 07:46:27;;;;;;;5.00;1.33;;;13.50;99.90;;;;;;5015292;28;20212;-78
2022/12/14 07:48:56;;;;;;;9.57;1.50;;;13.50;99.90;;;;;;5039137;28;20188;-77
2022/12/14 07:51:30;;;;;;;7.40;1.47;;;13.50;99.90;;;;;;5021321;28;20203;-77
2022/12/14 07:53:58;;;;;;;4.33;1.30;;;13.50;99.90;;;;;;5056222;28;20187;-78
2022/12/14 07:56:33;;;;;;;3.77;1.20;;;13.50;99.90;;;;;;5029599;28;20195;-78
2022/12/14 07:59:01;;;;;;;7.83;1.13;;;13.50;99.90;;;;;;5011228;28;20302;-78
2022/12/14 08:01:33;;;;;;;6.80;1.47;;;13.50;99.90;;;;;;5012524;28;20192;-77
2022/12/14 08:04:07;;;;;;;4.73;1.30;;;13.50;99.90;;;;;;5025468;28;20509;-77
2022/12/14 08:06:35;;;;;;;8.97;1.47;;;13.50;99.90;;;;;;5015895;28;20211;-77
2022/12/14 08:09:04;;;;;;;4.87;1.20;;;13.50;99.90;;;;;;5022092;28;20278;-77
2022/12/14 08:11:30;;;;;;;3.43;1.00;;;13.60;99.90;;;;;;5019092;28;20204;-77
2022/12/14 08:14:00;;;;;;;3.80;1.23;;;13.60;99.90;;;;;;5029843;28;20207;-77
2022/12/14 08:16:27;;;;;;;6.93;1.33;;;13.60;99.90;;;;;;5046921;28;20535;-78
2022/12/14 08:18:56;;;;;;;7.60;1.80;;;13.70;99.90;;;;;;5026865;28;20991;-78
2022/12/14 08:21:25;;;;;;;5.93;1.50;;;13.80;99.90;;;;;;5013924;28;20192;-78
2022/12/14 08:23:53;;;;;;;4.47;1.50;;;13.90;99.90;;;;;;5025382;28;20661;-77
2022/12/14 08:26:21;;;;;;;9.70;1.90;;;14.00;99.90;;;;;;5015621;28;20243;-77
2022/12/14 08:28:47;;;;;;;9.60;1.80;;;14.20;99.90;;;;;;5018356;28;20230;-78
2022/12/14 08:31:17;;;;;;;5.87;1.67;;;14.30;99.90;;;;;;5015818;28;20185;-77
2022/12/14 08:33:45;;;;;;;5.83;1.87;;;14.30;99.90;;;;;;4998894;28;20204;-78
2022/12/14 08:36:23;;;;;;;10.67;1.97;;;14.40;99.90;;;;;;4997612;28;20192;-78
2022/12/14 08:39:02;;;;;;;7.77;1.63;;;14.40;99.90;;;;;;5018143;28;20198;-77
2022/12/14 08:41:29;;;;;;;4.03;1.50;;;14.40;99.90;;;;;;5015998;28;20197;-77
2022/12/14 08:43:59;;;;;;;7.00;1.53;;;14.50;99.90;;;;;;5019595;28;20207;-77
2022/12/14 08:46:28;;;;;;;9.70;1.53;;;14.50;99.90;;;;;;5017555;28;20625;-78
2022/12/14 08:48:56;;;;;;;7.97;1.70;;;14.50;99.90;;;;;;5019167;28;20261;-77
2022/12/14 08:51:24;;;;;;;6.47;1.70;;;14.40;99.90;;;;;;5015326;28;20201;-77
2022/12/14 08:53:52;;;;;;;5.90;1.50;;;14.50;99.90;;;;;;5055739;28;20191;-78
2022/12/14 08:56:25;;;;;;;6.00;1.50;;;14.40;99.90;;;;;;5025915;28;20212;-78
2022/12/14 08:58:52;;;;;;;8.07;1.50;;;14.50;99.90;;;;;;5013050;28;20192;-78
2022/12/14 09:01:22;;;;;;;8.20;1.50;;;14.40;99.90;;;;;;5019377;28;20646;-78
2022/12/14 09:03:49;;;;;;;4.30;1.50;;;14.40;99.90;;;;;;5045632;28;20199;-77
2022/12/14 09:06:26;;;;;;;3.80;1.30;;;14.40;99.90;;;;;;5033741;28;20682;-77
2022/12/14 09:08:54;;;;;;;7.17;1.40;;;14.40;99.90;;;;;;5052250;28;20645;-77
2022/12/14 09:11:22;;;;;;;8.03;1.90;;;14.40;99.90;;;;;;5028255;28;20605;-77
2022/12/14 09:13:53;;;;;;;3.77;1.40;;;14.40;99.90;;;;;;5046730;28;21575;-78
2022/12/14 09:16:21;;;;;;;8.10;1.40;;;14.50;99.90;;;;;;5024848;28;20183;-77
2022/12/14 09:18:49;;;;;;;4.37;1.40;;;14.50;99.90;;;;;;5028891;28;20227;-78
2022/12/14 09:21:16;;;;;;;7.37;1.73;;;14.50;99.90;;;;;;5024679;28;20299;-77
2022/12/14 09:23:44;;;;;;;8.03;1.50;;;14.50;99.90;;;;;;5010124;28;20219;-77
2022/12/14 09:26:20;;;;;;;6.33;1.73;;;14.50;99.90;;;;;;5025106;28;20739;-78
2022/12/14 09:28:51;;;;;;;6.10;1.23;;;14.50;99.90;;;;;;5033686;28;20191;-78
2022/12/14 09:31:22;;;;;;;5.17;1.50;;;14.50;99.90;;;;;;5018734;28;20180;-78
2022/12/14 09:33:49;;;;;;;5.27;1.50;;;14.40;99.90;;;;;;5028141;28;20238;-78
2022/12/14 09:36:26;;;;;;;3.47;1.20;;;14.50;99.90;;;;;;5021123;28;20333;-78
2022/12/14 09:38:56;;;;;;;7.77;1.47;;;14.50;99.90;;;;;;5037984;28;20187;-78
2022/12/14 09:41:34;;;;;;;6.30;1.43;;;14.40;99.90;;;;;;5029681;28;20195;-78
2022/12/14 09:44:25;;;;;;;6.77;1.50;;;14.40;99.90;;;;;;5021546;28;20199;-78
2022/12/14 09:47:09;;;;;;;7.40;1.53;;;14.40;99.90;;;;;;5006097;28;20269;-77
2022/12/14 09:49:44;;;;;;;3.90;1.17;;;14.40;99.90;;;;;;5038102;28;20180;-77
2022/12/14 09:52:27;;;;;;;5.47;1.30;;;14.50;99.90;;;;;;5018289;28;20317;-78
2022/12/14 09:54:56;;;;;;;3.30;1.10;;;14.50;99.90;;;;;;5025613;28;20316;-78
2022/12/14 09:57:37;;;;;;;5.63;1.30;;;14.50;99.90;;;;;;5027034;28;20634;-77
2022/12/14 10:00:21;;;;;;;5.03;1.33;;;14.50;99.90;;;;;;5038073;28;20188;-77
2022/12/14 10:03:02;;;;;;;5.53;1.40;;;14.60;99.90;;;;;;5018971;28;20271;-77
2022/12/14 10:05:41;;;;;;;6.23;1.50;;;14.60;99.90;;;;;;5016620;28;20698;-77
2022/12/14 10:08:20;;;;;;;5.00;1.30;;;14.70;99.90;;;;;;5022150;28;20196;-77
2022/12/14 10:10:55;;;;;;;7.27;1.67;;;14.70;99.90;;;;;;5025129;28;20248;-77
2022/12/14 10:13:50;;;;;;;5.57;1.50;;;14.80;99.90;;;;;;5029445;28;20214;-77
2022/12/14 10:16:30;;;;;;;9.40;1.60;;;14.80;99.90;;;;;;5017947;28;20196;-77
2022/12/14 10:19:33;;;;;;;11.73;1.90;;;14.80;99.90;;;;;;5028456;28;21022;-77
2022/12/14 10:22:22;;;;;;;13.23;1.77;;;14.80;99.90;;;;;;5015260;28;20231;-77
2022/12/14 10:24:58;;;;;;;6.60;1.80;;;14.90;99.90;;;;;;5021231;28;20572;-78
2022/12/14 10:27:29;;;;;;;7.83;1.70;;;14.90;99.90;;;;;;5014554;28;20550;-77
2022/12/14 10:30:05;;;;;;;4.87;1.37;;;14.90;99.90;;;;;;5020166;28;20188;-77
2022/12/14 10:32:38;;;;;;;9.23;1.80;;;15.00;99.90;;;;;;5017236;28;20210;-78
2022/12/14 10:35:22;;;;;;;7.13;1.70;;;15.00;99.90;;;;;;5020290;28;20183;-77
2022/12/14 10:38:34;;;;;;;7.23;1.53;;;15.10;99.90;;;;;;5016092;28;20275;-77
2022/12/14 10:41:23;;;;;;;6.57;1.70;;;15.10;99.90;;;;;;5014515;28;20236;-78
2022/12/14 10:44:03;;;;;;;8.00;1.60;;;15.10;99.90;;;;;;5013981;28;20286;-77
2022/12/14 10:46:53;;;;;;;5.90;1.50;;;15.20;99.90;;;;;;5024098;28;20207;-78
2022/12/14 10:49:43;;;;;;;8.73;1.70;;;15.20;99.90;;;;;;5030813;28;20188;-78
2022/12/14 10:52:19;;;;;;;9.17;1.83;;;15.40;99.90;;;;;;5010306;28;20188;-77
2022/12/14 10:55:09;;;;;;;5.83;1.53;;;15.50;99.90;;;;;;5016056;28;20581;-78
2022/12/14 10:57:36;;;;;;;7.30;1.80;;;15.50;99.90;;;;;;5006744;28;20246;-78
2022/12/14 11:00:11;;;;;;;2.80;1.03;;;15.50;99.90;;;;;;5019457;28;20196;-78
2022/12/14 11:02:46;;;;;;;8.07;1.40;;;15.50;99.90;;;;;;5044716;28;20265;-78
2022/12/14 11:05:55;;;;;;;6.63;1.70;;;15.60;99.90;;;;;;5016174;28;20265;-78
2022/12/14 11:08:47;;;;;;;6.10;1.43;;;15.80;99.90;;;;;;5026960;28;20233;-78
2022/12/14 11:11:24;;;;;;;4.83;1.47;;;15.80;99.90;;;;;;5025270;28;20188;-78
2022/12/14 11:14:05;;;;;;;5.40;1.20;;;15.70;99.90;;;;;;5015015;28;20246;-76
2022/12/14 11:16:40;;;;;;;6.73;1.30;;;15.80;99.90;;;;;;5029194;28;20216;-78
2022/12/14 11:19:20;;;;;;;8.67;1.70;;;15.90;99.90;;;;;;5020317;28;20218;-78
2022/12/14 11:21:48;;;;;;;5.73;1.30;;;15.90;99.90;;;;;;5022090;28;20184;-78
2022/12/14 11:24:28;;;;;;;5.07;1.40;;;15.90;99.90;;;;;;5023963;28;20194;-78
2022/12/14 11:27:02;;;;;;;6.43;1.27;;;15.90;99.90;;;;;;5022330;28;20227;-78
2022/12/14 11:29:36;;;;;;;4.90;1.60;;;15.80;99.90;;;;;;5021547;28;20278;-78
2022/12/14 11:32:04;;;;;;;4.27;1.30;;;15.90;99.90;;;;;;5018632;28;20254;-78
2022/12/14 11:34:41;;;;;;;8.53;1.77;;;16.00;99.90;;;;;;5009268;28;20287;-79
2022/12/14 11:37:14;;;;;;;7.17;1.77;;;16.20;99.90;;;;;;5022623;28;20200;-79
2022/12/14 11:39:41;;;;;;;8.57;1.63;;;16.30;99.90;;;;;;5019976;28;20275;-77
2022/12/14 11:42:17;;;;;;;7.17;1.63;;;16.50;99.90;;;;;;5009942;28;20196;-78
2022/12/14 11:44:45;;;;;;;5.67;1.37;;;16.40;99.90;;;;;;5015745;28;20278;-78
2022/12/14 11:47:25;;;;;;;4.93;1.23;;;16.30;99.90;;;;;;5043775;28;20727;-78
2022/12/14 11:49:55;;;;;;;8.60;1.17;;;16.30;99.90;;;;;;5026237;28;20337;-78
2022/12/14 11:52:42;;;;;;;5.63;1.10;;;16.30;99.90;;;;;;5018332;28;20240;-78
2022/12/14 11:55:22;;;;;;;3.20;1.03;;;16.20;99.90;;;;;;5016070;28;20196;-78
2022/12/14 11:57:53;;;;;;;3.20;1.13;;;16.10;99.90;;;;;;5049453;28;20280;-78
2022/12/14 12:00:24;;;;;;;4.53;1.20;;;16.10;99.90;;;;;;5027858;28;20188;-78
2022/12/14 12:03:13;;;;;;;6.87;1.30;;;16.10;99.90;;;;;;5028483;28;20283;-78
2022/12/14 12:05:43;;;;;;;3.27;1.10;;;16.10;99.90;;;;;;5028471;28;20212;-78
2022/12/14 12:08:26;;;;;;;7.10;1.23;;;16.10;99.90;;;;;;5009957;28;20223;-78
2022/12/14 12:11:02;;;;;;;6.63;1.43;;;16.30;99.90;;;;;;5020251;28;20237;-78
2022/12/14 12:13:38;;;;;;;6.60;1.30;;;16.40;99.90;;;;;;5024679;28;20223;-78
2022/12/14 12:16:20;;;;;;;9.70;2.13;;;16.50;99.90;;;;;;5020096;28;20580;-78
2022/12/14 12:19:01;;;;;;;5.50;1.73;;;16.50;99.90;;;;;;5006788;28;20515;-79
2022/12/14 12:21:34;;;;;;;5.30;1.37;;;16.60;99.90;;;;;;5025803;28;20206;-78
2022/12/14 12:24:06;;;;;;;4.93;1.40;;;16.60;99.90;;;;;;5016608;28;20188;-78
2022/12/14 12:26:48;;;;;;;7.57;1.70;;;16.50;99.90;;;;;;5015846;28;20212;-79
2022/12/14 12:29:49;;;;;;;4.73;1.40;;;16.40;99.90;;;;;;5013871;28;20561;-78
2022/12/14 12:32:42;;;;;;;9.27;1.83;;;16.40;99.90;;;;;;5017027;28;20257;-78
2022/12/14 12:35:53;;;;;;;6.60;1.60;;;16.40;99.90;;;;;;5034574;28;20659;-78
2022/12/14 12:39:14;;;;;;;5.97;1.60;;;16.60;99.90;;;;;;5034698;28;20196;-76
2022/12/14 12:41:43;;;;;;;7.93;1.63;;;16.60;99.90;;;;;;5008260;28;20199;-78
2022/12/14 12:44:35;;;;;;;7.73;1.93;;;16.60;99.90;;;;;;5025567;28;20189;-78
2022/12/14 12:47:40;;;;;;;6.70;1.60;;;16.60;99.90;;;;;;5006680;28;20696;-78
2022/12/14 12:50:29;;;;;;;10.53;1.90;;;16.60;99.90;;;;;;5024341;28;20191;-77
2022/12/14 12:53:12;;;;;;;9.80;2.27;;;16.60;99.90;;;;;;5022528;28;20638;-78
2022/12/14 12:55:52;;;;;;;7.67;1.57;;;16.60;99.90;;;;;;5021041;28;20188;-78
2022/12/14 12:58:31;;;;;;;6.37;1.40;;;16.60;99.90;;;;;;5027569;28;20194;-78
2022/12/14 13:01:21;;;;;;;7.10;1.57;;;16.50;99.90;;;;;;5020862;28;20204;-78
2022/12/14 13:03:56;;;;;;;8.80;1.60;;;16.60;99.90;;;;;;5023831;28;20201;-78
2022/12/14 13:06:52;;;;;;;10.17;2.10;;;16.50;99.90;;;;;;5021458;28;20241;-78
2022/12/14 13:10:07;;;;;;;5.40;1.63;;;16.40;99.90;;;;;;5037998;28;20195;-78
2022/12/14 13:12:47;;;;;;;5.67;1.60;;;16.30;99.90;;;;;;4940103;28;20190;-78
2022/12/14 13:15:32;;;;;;;7.73;1.50;;;16.30;99.90;;;;;;4953545;28;20307;-78
2022/12/14 13:18:24;;;;;;;3.23;1.67;;;16.40;99.90;;;;;;4996647;28;20200;-78
2022/12/14 13:20:52;;;;;;;6.53;1.60;;;16.40;99.90;;;;;;5028296;28;20232;-78
2022/12/14 13:23:27;;;;;;;7.67;1.60;;;16.40;99.90;;;;;;5033501;28;20283;-78
2022/12/14 13:26:23;;;;;;;7.60;1.40;;;16.40;99.90;;;;;;5021506;28;20272;-78
2022/12/14 13:29:28;;;;;;;6.90;1.63;;;16.40;99.90;;;;;;5028646;28;20188;-78
2022/12/14 13:32:12;;;;;;;5.10;1.53;;;16.40;99.90;;;;;;4975947;28;20200;-76
2022/12/14 13:35:25;;;;;;;11.77;1.77;;;16.40;99.90;;;;;;5023834;28;20228;-77
2022/12/14 13:38:40;;;;;;;6.67;1.67;;;16.40;99.90;;;;;;5026167;28;20388;-78
2022/12/14 13:42:01;;;;;;;5.10;1.70;;;16.30;99.90;;;;;;5018031;28;20189;-78
2022/12/14 13:45:00;;;;;;;6.17;1.67;;;16.30;99.90;;;;;;5023143;28;20571;-78
2022/12/14 13:47:52;;;;;;;7.10;1.57;;;16.20;99.90;;;;;;5024927;28;20593;-78